Time;durP1;ratioP1;P1;durP2;ratioP2;P2;SDS_P1;SDS_P2;PMS_P1;PMS_P2;Temp;Humidity;BMP_temperature;BMP_pressure;BME280_temperature;BME280_humidity;BME280_pressure;Samples;Min_cycle;Max_cycle;Signal;HPM_P1;HPM_P2
2022/12/05 00:01:39;;;;;;;30.70;19.90;;;4.90;99.90;;;;;;4842014;29;20507;-54
2022/12/05 00:04:10;;;;;;;31.20;19.77;;;4.90;99.90;;;;;;4842563;29;20576;-54
2022/12/05 00:06:40;;;;;;;31.37;20.10;;;5.00;99.90;;;;;;4842609;29;21101;-54
2022/12/05 00:09:10;;;;;;;28.37;18.90;;;4.90;99.90;;;;;;4842424;29;20503;-54
2022/12/05 00:11:42;;;;;;;28.13;18.90;;;5.00;99.90;;;;;;4842567;29;20531;-54
2022/12/05 00:14:11;;;;;;;28.00;19.23;;;5.00;99.90;;;;;;4842543;29;20985;-54
2022/12/05 00:16:41;;;;;;;28.00;18.27;;;5.00;99.90;;;;;;4842436;29;21033;-54
2022/12/05 00:19:12;;;;;;;26.07;17.77;;;5.00;99.90;;;;;;4824548;29;20563;-54
2022/12/05 00:21:40;;;;;;;27.97;18.87;;;5.00;99.90;;;;;;4822784;29;20625;-54
2022/12/05 00:24:12;;;;;;;28.57;18.63;;;5.00;99.90;;;;;;4824614;29;20549;-55
2022/12/05 00:26:41;;;;;;;28.50;19.07;;;5.00;99.90;;;;;;4841580;29;20475;-54
2022/12/05 00:29:09;;;;;;;28.60;19.73;;;4.90;99.90;;;;;;4837939;29;20503;-54
2022/12/05 00:31:37;;;;;;;31.03;19.60;;;5.00;99.90;;;;;;4834263;29;20545;-53
2022/12/05 00:34:06;;;;;;;29.30;19.50;;;4.90;99.90;;;;;;4842023;29;20479;-55
2022/12/05 00:36:35;;;;;;;32.00;20.10;;;4.90;99.90;;;;;;4842031;29;20483;-55
2022/12/05 00:39:06;;;;;;;29.90;19.53;;;5.00;99.90;;;;;;4842341;29;20479;-54
2022/12/05 00:41:34;;;;;;;29.33;19.57;;;4.90;99.90;;;;;;4842149;29;20472;-53
2022/12/05 00:44:04;;;;;;;28.03;19.73;;;4.90;99.90;;;;;;4841833;29;20502;-52
2022/12/05 00:46:33;;;;;;;30.93;19.83;;;4.90;99.90;;;;;;4841645;29;20489;-53
2022/12/05 00:49:03;;;;;;;29.80;20.57;;;4.90;99.90;;;;;;4841752;29;20501;-54
2022/12/05 00:51:33;;;;;;;29.97;20.97;;;4.90;99.90;;;;;;4842046;29;20480;-53
2022/12/05 00:54:04;;;;;;;31.03;19.33;;;4.90;99.90;;;;;;4842250;29;20829;-53
2022/12/05 00:56:33;;;;;;;27.13;18.13;;;4.90;99.90;;;;;;4841955;29;20805;-55
2022/12/05 00:59:04;;;;;;;31.87;20.63;;;4.90;99.90;;;;;;4841748;29;20533;-54
2022/12/05 01:01:34;;;;;;;31.10;21.00;;;4.90;99.90;;;;;;4841071;29;20487;-54
2022/12/05 01:04:05;;;;;;;32.80;19.47;;;4.90;99.90;;;;;;4841773;29;20482;-55
2022/12/05 01:06:33;;;;;;;33.03;21.07;;;5.10;99.90;;;;;;4841548;29;20519;-52
2022/12/05 01:09:02;;;;;;;31.97;21.53;;;5.00;99.90;;;;;;4842499;29;21077;-55
2022/12/05 01:11:30;;;;;;;29.80;18.40;;;4.90;99.90;;;;;;4845610;29;20535;-54
2022/12/05 01:14:04;;;;;;;31.50;20.33;;;5.10;99.90;;;;;;4845665;29;20976;-56
2022/12/05 01:16:35;;;;;;;35.33;21.00;;;5.00;99.90;;;;;;4845516;29;20543;-53
2022/12/05 01:19:06;;;;;;;33.73;22.07;;;5.00;99.90;;;;;;4845560;29;20515;-54
2022/12/05 01:21:34;;;;;;;32.30;21.03;;;4.90;99.90;;;;;;4844967;29;20888;-56
2022/12/05 01:24:02;;;;;;;35.90;21.67;;;4.90;99.90;;;;;;4845642;29;20488;-54
2022/12/05 01:26:30;;;;;;;32.53;21.87;;;4.90;99.90;;;;;;4845267;29;20561;-53
2022/12/05 01:28:58;;;;;;;32.50;22.57;;;4.90;99.90;;;;;;4845503;29;21015;-54
2022/12/05 01:31:29;;;;;;;36.50;21.73;;;4.80;99.90;;;;;;4848731;29;20578;-53
2022/12/05 01:34:00;;;;;;;33.23;21.63;;;4.90;99.90;;;;;;4845397;29;20526;-55
2022/12/05 01:36:28;;;;;;;32.57;19.97;;;5.00;99.90;;;;;;4844950;29;20468;-54
2022/12/05 01:38:57;;;;;;;31.43;21.23;;;5.00;99.90;;;;;;4845357;29;20476;-55
2022/12/05 01:41:27;;;;;;;28.63;19.93;;;5.00;99.90;;;;;;4844977;29;20488;-54
2022/12/05 01:44:01;;;;;;;30.67;20.77;;;5.00;99.90;;;;;;4844992;29;21014;-55
2022/12/05 01:46:33;;;;;;;31.77;21.53;;;5.10;99.90;;;;;;4844977;29;20559;-54
2022/12/05 01:49:05;;;;;;;31.90;20.37;;;5.00;99.90;;;;;;4844841;29;20868;-54
2022/12/05 01:51:35;;;;;;;32.27;20.77;;;5.10;99.90;;;;;;4844912;29;20487;-53
2022/12/05 01:54:05;;;;;;;31.27;21.50;;;5.00;99.90;;;;;;4845101;29;20483;-54
2022/12/05 01:56:35;;;;;;;28.37;19.43;;;5.00;99.90;;;;;;4844841;29;20484;-53
2022/12/05 01:59:05;;;;;;;33.03;20.57;;;5.00;99.90;;;;;;4844963;29;20498;-54
2022/12/05 02:01:35;;;;;;;27.13;19.03;;;5.00;99.90;;;;;;4848267;29;20482;-52
2022/12/05 02:04:04;;;;;;;29.20;19.53;;;5.00;99.90;;;;;;4844593;29;20516;-54
2022/12/05 02:06:33;;;;;;;28.93;18.80;;;5.00;99.90;;;;;;4844495;29;20539;-52
2022/12/05 02:09:01;;;;;;;26.27;18.90;;;5.10;99.90;;;;;;4844782;29;20486;-53
2022/12/05 02:11:32;;;;;;;25.53;18.17;;;5.00;99.90;;;;;;4844376;29;20475;-54
2022/12/05 02:14:14;;;;;;;27.27;19.00;;;5.00;99.90;;;;;;4844737;29;20483;-52
2022/12/05 02:16:50;;;;;;;25.27;17.90;;;5.00;99.90;;;;;;4844121;29;20535;-54
2022/12/05 02:19:56;;;;;;;26.30;17.03;;;5.00;99.90;;;;;;4833320;29;20860;-53
2022/12/05 02:22:51;;;;;;;25.53;17.03;;;5.10;99.90;;;;;;4844331;29;20486;-53
2022/12/05 02:25:54;;;;;;;23.27;16.60;;;5.00;99.90;;;;;;4844525;29;20490;-54
2022/12/05 02:28:51;;;;;;;22.97;16.13;;;5.00;99.90;;;;;;4823339;29;21024;-54
2022/12/05 02:31:29;;;;;;;22.83;15.93;;;5.00;99.90;;;;;;4840759;29;20483;-55
2022/12/05 02:34:05;;;;;;;23.30;16.10;;;5.00;99.90;;;;;;4843930;29;20508;-54
2022/12/05 02:36:39;;;;;;;24.47;16.03;;;5.00;99.90;;;;;;4844196;29;20476;-56
2022/12/05 02:39:15;;;;;;;19.87;13.90;;;5.00;99.90;;;;;;4844196;29;20468;-54
2022/12/05 02:41:51;;;;;;;22.00;16.40;;;5.10;99.90;;;;;;4844104;29;20964;-54
2022/12/05 02:44:23;;;;;;;21.70;15.23;;;5.00;99.90;;;;;;4843945;29;20491;-53
2022/12/05 02:46:54;;;;;;;24.60;16.60;;;5.00;99.90;;;;;;4843781;29;20483;-54
2022/12/05 02:49:26;;;;;;;23.97;15.50;;;5.20;99.90;;;;;;4843969;29;20483;-53
2022/12/05 02:51:59;;;;;;;21.40;14.83;;;5.20;99.90;;;;;;4844216;29;20483;-55
2022/12/05 02:54:33;;;;;;;22.13;14.93;;;5.10;99.90;;;;;;4855743;29;20261;-54
2022/12/05 02:57:01;;;;;;;21.17;15.73;;;5.10;99.90;;;;;;4843755;29;20483;-54
2022/12/05 02:59:29;;;;;;;22.40;15.97;;;5.10;99.90;;;;;;4843815;29;20573;-54
2022/12/05 03:01:59;;;;;;;21.03;15.67;;;5.10;99.90;;;;;;4843211;29;20242;-54
2022/12/05 03:04:29;;;;;;;23.33;15.57;;;5.10;99.90;;;;;;4843417;29;20525;-55
2022/12/05 03:07:02;;;;;;;22.53;14.83;;;5.10;99.90;;;;;;4843618;29;20246;-53
2022/12/05 03:09:35;;;;;;;21.53;15.47;;;5.00;99.90;;;;;;4843546;29;20714;-54
2022/12/05 03:12:09;;;;;;;23.60;16.37;;;5.10;99.90;;;;;;4843724;29;20985;-53
2022/12/05 03:14:41;;;;;;;20.60;14.97;;;5.20;99.90;;;;;;4843488;29;20492;-54
2022/12/05 03:17:18;;;;;;;20.90;14.03;;;5.20;99.90;;;;;;4843217;29;20487;-54
2022/12/05 03:19:56;;;;;;;23.87;15.60;;;5.30;99.90;;;;;;4843440;29;20852;-54
2022/12/05 03:22:32;;;;;;;22.63;15.37;;;5.20;99.90;;;;;;4843230;29;20472;-54
2022/12/05 03:25:02;;;;;;;23.83;15.03;;;5.10;99.90;;;;;;4843141;29;20485;-54
2022/12/05 03:27:40;;;;;;;20.30;15.03;;;5.20;99.90;;;;;;4842952;29;20482;-53
2022/12/05 03:30:12;;;;;;;22.33;14.83;;;5.30;99.90;;;;;;4842751;29;20229;-52
2022/12/05 03:32:49;;;;;;;20.97;14.33;;;5.10;99.90;;;;;;4838349;29;20841;-54
2022/12/05 03:35:23;;;;;;;19.20;14.00;;;5.10;99.90;;;;;;4843135;29;20234;-55
2022/12/05 03:37:54;;;;;;;19.67;14.00;;;5.10;99.90;;;;;;4843251;29;20540;-54
2022/12/05 03:40:29;;;;;;;19.47;13.67;;;5.10;99.90;;;;;;4843276;29;20476;-54
2022/12/05 03:43:04;;;;;;;19.83;13.90;;;5.10;99.90;;;;;;4842936;29;20542;-53
2022/12/05 03:45:37;;;;;;;17.83;12.93;;;5.10;99.90;;;;;;4842551;29;20491;-55
2022/12/05 03:48:13;;;;;;;18.70;13.37;;;5.20;99.90;;;;;;4842907;29;20241;-54
2022/12/05 03:50:44;;;;;;;18.43;13.10;;;5.30;99.90;;;;;;4842843;29;21022;-55
2022/12/05 03:53:16;;;;;;;18.13;12.57;;;5.30;99.90;;;;;;4842816;29;20500;-53
2022/12/05 03:55:54;;;;;;;20.07;12.40;;;5.20;99.90;;;;;;4842813;29;20599;-54
2022/12/05 03:58:28;;;;;;;20.50;13.47;;;5.30;99.90;;;;;;4842989;29;20484;-55
2022/12/05 04:00:59;;;;;;;21.13;14.13;;;5.20;99.90;;;;;;4842225;29;20487;-53
2022/12/05 04:03:38;;;;;;;18.23;13.17;;;5.20;99.90;;;;;;4842608;29;20487;-53
2022/12/05 04:06:13;;;;;;;18.27;12.83;;;5.20;99.90;;;;;;4842837;29;20482;-52
2022/12/05 04:08:47;;;;;;;17.20;12.80;;;5.20;99.90;;;;;;4842364;29;20946;-55
2022/12/05 04:11:19;;;;;;;22.00;13.60;;;5.30;99.90;;;;;;4841803;29;20557;-54
2022/12/05 04:13:50;;;;;;;16.73;11.87;;;5.30;99.90;;;;;;4842436;29;20495;-54
2022/12/05 04:19:18;;;;;;;19.97;13.40;;;5.90;99.90;;;;;;4841247;29;20534;-54
2022/12/05 04:21:49;;;;;;;18.97;13.87;;;5.90;99.90;;;;;;4842186;29;20486;-54
2022/12/05 04:27:18;;;;;;;17.50;12.53;;;5.90;99.90;;;;;;4842074;29;20485;-54
2022/12/05 04:29:54;;;;;;;19.10;12.60;;;5.70;99.90;;;;;;4842355;29;20483;-54
2022/12/05 04:32:27;;;;;;;19.20;16.47;;;5.60;99.90;;;;;;4840485;29;20966;-53
2022/12/05 04:35:01;;;;;;;18.53;13.57;;;5.50;99.90;;;;;;4836285;29;20474;-55
2022/12/05 04:37:35;;;;;;;18.87;13.27;;;5.70;99.90;;;;;;4829594;29;20241;-54
2022/12/05 04:40:11;;;;;;;18.37;11.70;;;5.70;99.90;;;;;;4841309;29;20237;-54
2022/12/05 04:42:42;;;;;;;17.70;12.90;;;5.80;99.90;;;;;;4841955;29;20233;-54
2022/12/05 04:45:15;;;;;;;19.03;13.20;;;5.60;99.90;;;;;;4838374;29;20910;-54
2022/12/05 04:47:48;;;;;;;16.83;12.43;;;5.50;99.90;;;;;;4831689;29;20489;-53
2022/12/05 04:50:18;;;;;;;17.47;12.63;;;5.60;99.90;;;;;;4837094;29;20540;-54
2022/12/05 04:52:50;;;;;;;16.90;11.90;;;5.50;99.90;;;;;;4841686;29;20490;-56
2022/12/05 04:55:24;;;;;;;18.97;13.07;;;5.60;99.90;;;;;;4835792;29;20476;-53
2022/12/05 04:57:59;;;;;;;19.40;13.63;;;5.50;99.90;;;;;;4840602;29;20329;-53
2022/12/05 05:00:30;;;;;;;17.63;12.33;;;5.50;99.90;;;;;;4841400;29;20239;-55
2022/12/05 05:03:04;;;;;;;17.63;13.17;;;5.40;99.90;;;;;;4841439;29;20547;-55
2022/12/05 05:05:36;;;;;;;19.03;13.33;;;5.40;99.90;;;;;;4841870;29;20296;-55
2022/12/05 05:08:15;;;;;;;18.60;13.60;;;5.40;99.90;;;;;;4837805;29;20973;-54
2022/12/05 05:10:51;;;;;;;18.03;13.13;;;5.40;99.90;;;;;;4833717;29;20799;-54
2022/12/05 05:13:19;;;;;;;19.20;12.70;;;5.50;99.90;;;;;;4832399;29;20970;-54
2022/12/05 05:15:47;;;;;;;17.67;12.63;;;5.50;99.90;;;;;;4831638;29;20619;-54
2022/12/05 05:18:15;;;;;;;17.57;13.83;;;5.50;99.90;;;;;;4832942;29;20231;-56
2022/12/05 05:20:45;;;;;;;19.53;14.07;;;5.60;99.90;;;;;;4832842;29;20515;-55
2022/12/05 05:23:13;;;;;;;18.43;12.93;;;5.50;99.90;;;;;;4833837;29;20479;-53
2022/12/05 05:25:41;;;;;;;18.37;13.17;;;5.50;99.90;;;;;;4836259;29;21037;-55
2022/12/05 05:28:09;;;;;;;20.37;13.77;;;5.50;99.90;;;;;;4831842;29;20481;-54
2022/12/05 05:30:37;;;;;;;23.30;15.23;;;5.50;99.90;;;;;;4833108;29;20484;-54
2022/12/05 05:33:05;;;;;;;24.13;14.67;;;5.50;99.90;;;;;;4835682;29;20486;-55
2022/12/05 05:35:36;;;;;;;23.90;14.37;;;5.60;99.90;;;;;;4831771;29;20535;-55
2022/12/05 05:38:05;;;;;;;25.47;16.73;;;5.60;99.90;;;;;;4832536;29;20482;-54
2022/12/05 05:40:36;;;;;;;23.87;16.07;;;5.50;99.90;;;;;;4832129;29;20473;-54
2022/12/05 05:43:04;;;;;;;24.47;16.47;;;5.40;99.90;;;;;;4828180;29;20476;-55
2022/12/05 05:45:32;;;;;;;23.70;16.27;;;5.40;99.90;;;;;;4838648;29;20539;-53
2022/12/05 05:48:00;;;;;;;24.00;15.93;;;5.40;99.90;;;;;;4841528;29;20478;-54
2022/12/05 05:50:28;;;;;;;25.87;15.83;;;5.40;99.90;;;;;;4841612;29;20895;-54
2022/12/05 05:52:56;;;;;;;23.47;15.13;;;5.60;99.90;;;;;;4841402;29;20238;-54
2022/12/05 05:55:26;;;;;;;26.13;16.20;;;5.50;99.90;;;;;;4841588;29;20241;-54
2022/12/05 05:57:54;;;;;;;23.77;15.83;;;5.70;99.90;;;;;;4844689;29;20241;-54
2022/12/05 06:00:22;;;;;;;24.33;15.57;;;5.60;99.90;;;;;;4845639;29;20470;-53
2022/12/05 06:02:50;;;;;;;24.30;15.17;;;5.50;99.90;;;;;;4846535;29;20484;-53
2022/12/05 06:05:18;;;;;;;24.03;15.60;;;5.50;99.90;;;;;;4843903;29;20482;-54
2022/12/05 06:07:47;;;;;;;23.17;14.93;;;5.60;99.90;;;;;;4844736;29;20483;-53
2022/12/05 06:10:16;;;;;;;22.27;15.53;;;5.60;99.90;;;;;;4844590;29;20238;-55
2022/12/05 06:12:45;;;;;;;23.07;15.23;;;5.50;99.90;;;;;;4844291;29;20239;-55
2022/12/05 06:15:13;;;;;;;22.80;15.27;;;5.60;99.90;;;;;;4843782;29;20495;-54
2022/12/05 06:17:41;;;;;;;24.60;15.03;;;5.60;99.90;;;;;;4844366;29;20476;-54
2022/12/05 06:20:10;;;;;;;21.30;13.37;;;5.50;99.90;;;;;;4844327;29;20487;-53
2022/12/05 06:22:38;;;;;;;21.27;14.37;;;5.50;99.90;;;;;;4844483;29;20964;-54
2022/12/05 06:25:08;;;;;;;19.27;13.63;;;5.50;99.90;;;;;;4844110;29;20484;-54
2022/12/05 06:27:36;;;;;;;20.70;13.70;;;5.40;99.90;;;;;;4843995;29;20484;-53
2022/12/05 06:30:07;;;;;;;22.97;13.63;;;5.60;99.90;;;;;;4835571;29;20478;-53
2022/12/05 06:32:35;;;;;;;21.10;13.43;;;5.70;99.90;;;;;;4841477;29;20237;-53
2022/12/05 06:35:09;;;;;;;19.57;13.13;;;5.60;99.90;;;;;;4843033;29;20525;-54
2022/12/05 06:37:38;;;;;;;19.87;14.17;;;5.60;99.90;;;;;;4844019;29;20485;-54
2022/12/05 06:40:07;;;;;;;20.80;13.60;;;5.50;99.90;;;;;;4844357;29;20540;-54
2022/12/05 06:42:35;;;;;;;20.37;13.37;;;5.50;99.90;;;;;;4844094;29;20836;-55
2022/12/05 06:45:06;;;;;;;17.80;12.60;;;5.50;99.90;;;;;;4843981;29;20398;-54
2022/12/05 06:47:34;;;;;;;22.27;14.23;;;5.60;99.90;;;;;;4843716;29;20487;-54
2022/12/05 06:50:03;;;;;;;21.33;12.90;;;5.50;99.90;;;;;;4844219;29;20475;-53
2022/12/05 06:52:31;;;;;;;19.13;12.63;;;5.50;99.90;;;;;;4843702;29;20492;-54
2022/12/05 06:54:59;;;;;;;22.17;13.80;;;5.50;99.90;;;;;;4843813;29;20495;-55
2022/12/05 06:57:28;;;;;;;20.83;12.93;;;5.40;99.90;;;;;;4843825;29;20234;-55
2022/12/05 07:01:37;;;;;;;22.73;13.97;;;5.40;99.90;;;;;;4844000;29;20482;-54
2022/12/05 07:02:51;;;;;;;24.30;14.93;;;5.50;99.90;;;;;;4840864;29;20480;-53
2022/12/05 07:05:20;;;;;;;26.77;14.87;;;5.50;99.90;;;;;;4843645;29;20553;-51
2022/12/05 07:07:48;;;;;;;24.27;15.03;;;5.50;99.90;;;;;;4842452;29;20490;-54
2022/12/05 07:10:16;;;;;;;26.70;15.90;;;5.40;99.90;;;;;;4843834;29;20473;-53
2022/12/05 07:12:44;;;;;;;32.60;17.13;;;5.40;99.90;;;;;;4843276;29;20495;-53
2022/12/05 07:15:12;;;;;;;34.47;17.90;;;5.40;99.90;;;;;;4843495;29;20471;-53
2022/12/05 07:17:40;;;;;;;32.90;17.23;;;5.40;99.90;;;;;;4843592;29;20836;-53
2022/12/05 07:20:11;;;;;;;34.07;18.37;;;5.30;99.90;;;;;;4843412;29;20471;-54
2022/12/05 07:22:39;;;;;;;35.13;18.57;;;5.40;99.90;;;;;;4843352;29;21024;-54
2022/12/05 07:25:08;;;;;;;35.90;17.57;;;5.30;99.90;;;;;;4843442;29;20492;-54
2022/12/05 07:27:36;;;;;;;37.20;18.90;;;5.40;99.90;;;;;;4842938;29;20971;-55
2022/12/05 07:30:05;;;;;;;34.03;18.87;;;5.30;99.90;;;;;;4843162;29;20475;-55
2022/12/05 07:32:33;;;;;;;37.33;19.03;;;5.30;99.90;;;;;;4846115;29;20487;-55
2022/12/05 07:35:01;;;;;;;34.77;19.20;;;5.30;99.90;;;;;;4843165;29;20479;-54
2022/12/05 07:37:31;;;;;;;37.13;20.00;;;5.30;99.90;;;;;;4842663;29;20483;-55
2022/12/05 07:39:59;;;;;;;32.67;17.93;;;5.30;99.90;;;;;;4842969;29;20484;-52
2022/12/05 07:42:28;;;;;;;40.43;19.23;;;5.30;99.90;;;;;;4842864;29;20515;-53
2022/12/05 07:44:55;;;;;;;36.00;19.10;;;5.20;99.90;;;;;;4842983;29;20488;-53
2022/12/05 07:47:24;;;;;;;35.57;19.23;;;5.20;99.90;;;;;;4843196;29;20540;-54
2022/12/05 07:49:52;;;;;;;36.47;19.50;;;5.20;99.90;;;;;;4842857;29;20472;-53
2022/12/05 07:52:20;;;;;;;35.63;17.70;;;5.20;99.90;;;;;;4842843;29;20487;-55
2022/12/05 07:54:49;;;;;;;37.57;19.50;;;5.20;99.90;;;;;;4842698;29;20484;-53
2022/12/05 07:57:17;;;;;;;35.13;19.53;;;5.30;99.90;;;;;;4842399;29;20475;-54
2022/12/05 07:59:45;;;;;;;38.07;20.07;;;5.20;99.90;;;;;;4842259;29;20481;-54
2022/12/05 08:02:13;;;;;;;33.67;19.07;;;5.20;99.90;;;;;;4842121;29;20557;-53
2022/12/05 08:04:41;;;;;;;35.13;18.63;;;5.30;99.90;;;;;;4842611;29;20834;-54
2022/12/05 08:07:10;;;;;;;36.47;19.67;;;5.20;99.90;;;;;;4824535;29;20842;-51
2022/12/05 08:09:38;;;;;;;38.40;20.37;;;5.20;99.90;;;;;;4824194;29;20477;-54
2022/12/05 08:12:08;;;;;;;37.83;19.67;;;5.20;99.90;;;;;;4823978;29;20461;-52
2022/12/05 08:14:36;;;;;;;37.27;19.27;;;5.10;99.90;;;;;;4824181;29;20476;-54
2022/12/05 08:17:04;;;;;;;35.37;19.83;;;5.20;99.90;;;;;;4832637;29;20471;-54
2022/12/05 08:19:32;;;;;;;36.97;20.70;;;5.20;99.90;;;;;;4841359;29;20565;-56
2022/12/05 08:22:00;;;;;;;38.20;20.33;;;5.20;99.90;;;;;;4842039;29;20487;-55
2022/12/05 08:24:28;;;;;;;38.97;21.97;;;5.20;99.90;;;;;;4842320;29;20478;-54
2022/12/05 08:26:57;;;;;;;39.63;20.77;;;5.20;99.90;;;;;;4841941;29;20498;-54
2022/12/05 08:29:26;;;;;;;43.57;21.53;;;5.20;99.90;;;;;;4842310;29;21056;-53
2022/12/05 08:31:54;;;;;;;43.30;22.10;;;5.20;99.90;;;;;;4845323;29;20537;-52
2022/12/05 08:34:22;;;;;;;53.50;24.77;;;5.20;99.90;;;;;;4842336;29;20899;-54
2022/12/05 08:36:50;;;;;;;45.93;23.70;;;5.10;99.90;;;;;;4842353;29;20480;-54
2022/12/05 08:39:19;;;;;;;53.17;24.70;;;5.10;99.90;;;;;;4842160;29;20971;-54
2022/12/05 08:41:48;;;;;;;55.07;25.53;;;5.10;99.90;;;;;;4841930;29;20480;-55
2022/12/05 08:44:17;;;;;;;55.60;26.47;;;5.10;99.90;;;;;;4841221;29;20302;-54
2022/12/05 08:46:48;;;;;;;60.37;27.10;;;5.10;99.90;;;;;;4841935;29;20509;-55
2022/12/05 08:49:17;;;;;;;56.73;25.10;;;5.10;99.90;;;;;;4841689;29;20479;-55
2022/12/05 08:51:45;;;;;;;56.17;25.77;;;5.00;99.90;;;;;;4841431;29;20480;-53
2022/12/05 08:54:14;;;;;;;58.70;25.80;;;5.00;99.90;;;;;;4840806;29;20511;-55
2022/12/05 08:56:42;;;;;;;54.33;25.20;;;5.00;99.90;;;;;;4841951;29;20476;-53
2022/12/05 08:59:10;;;;;;;56.50;25.80;;;5.00;99.90;;;;;;4830034;29;20472;-54
2022/12/05 09:01:39;;;;;;;59.27;26.40;;;5.00;99.90;;;;;;4845372;29;20499;-54
2022/12/05 09:04:09;;;;;;;60.87;27.03;;;5.00;99.90;;;;;;4841780;29;21238;-55
2022/12/05 09:06:38;;;;;;;63.70;27.67;;;5.00;99.90;;;;;;4841409;29;20531;-54
2022/12/05 09:09:10;;;;;;;65.03;28.07;;;5.00;99.90;;;;;;4842208;29;20544;-55
2022/12/05 09:11:42;;;;;;;61.27;27.27;;;5.00;99.90;;;;;;4841786;29;20518;-55
2022/12/05 09:14:10;;;;;;;58.20;25.03;;;4.90;99.90;;;;;;4842019;29;20499;-54
2022/12/05 09:16:39;;;;;;;62.73;27.63;;;4.90;99.90;;;;;;4841847;29;20472;-55
2022/12/05 09:19:13;;;;;;;66.27;27.23;;;5.00;99.90;;;;;;4835967;29;20525;-56
2022/12/05 09:21:42;;;;;;;63.93;27.40;;;4.90;99.90;;;;;;4838107;29;20478;-55
2022/12/05 09:24:11;;;;;;;63.00;26.37;;;4.90;99.90;;;;;;4833173;29;20483;-54
2022/12/05 09:26:40;;;;;;;59.70;26.37;;;4.90;99.90;;;;;;4840991;29;20476;-52
2022/12/05 09:29:08;;;;;;;63.77;28.13;;;5.00;99.90;;;;;;4833684;29;20492;-54
2022/12/05 09:31:44;;;;;;;63.37;27.03;;;5.00;99.90;;;;;;4835437;29;20529;-53
2022/12/05 09:34:14;;;;;;;62.50;26.63;;;4.90;99.90;;;;;;4837804;29;20582;-54
2022/12/05 09:36:42;;;;;;;53.90;23.73;;;4.80;99.90;;;;;;4845056;29;20476;-53
2022/12/05 09:39:11;;;;;;;58.40;25.03;;;4.80;99.90;;;;;;4845269;29;20987;-54
2022/12/05 09:42:06;;;;;;;58.87;25.77;;;4.80;99.90;;;;;;4845048;29;20495;-55
2022/12/05 09:44:55;;;;;;;53.20;25.07;;;4.80;99.90;;;;;;4826320;29;20526;-54
2022/12/05 09:47:33;;;;;;;54.73;24.27;;;4.80;99.90;;;;;;4826927;29;20560;-52
2022/12/05 09:50:14;;;;;;;54.00;22.73;;;4.80;99.90;;;;;;4826892;29;20487;-55
2022/12/05 09:52:48;;;;;;;52.00;24.10;;;4.80;99.90;;;;;;4826644;29;20506;-55
2022/12/05 09:55:19;;;;;;;56.13;25.17;;;4.70;99.90;;;;;;4836606;29;20510;-53
2022/12/05 09:57:51;;;;;;;52.90;23.70;;;4.70;99.90;;;;;;4837787;29;20464;-55
2022/12/05 10:00:20;;;;;;;53.50;24.27;;;4.70;99.90;;;;;;4834943;29;20489;-54
2022/12/05 10:03:03;;;;;;;51.67;24.47;;;4.80;99.90;;;;;;4838721;29;20476;-56
2022/12/05 10:05:47;;;;;;;46.90;21.60;;;4.80;99.90;;;;;;4833991;29;20527;-55
2022/12/05 10:08:21;;;;;;;56.37;23.70;;;4.90;99.90;;;;;;4831492;29;20826;-53
2022/12/05 10:11:00;;;;;;;50.67;25.00;;;4.80;99.90;;;;;;4826102;29;20834;-54
2022/12/05 10:13:40;;;;;;;54.87;24.73;;;4.80;99.90;;;;;;4825918;29;20496;-54
2022/12/05 10:16:13;;;;;;;54.43;25.43;;;4.70;99.90;;;;;;4826303;29;20830;-54
2022/12/05 10:18:44;;;;;;;53.63;24.97;;;4.70;99.90;;;;;;4830945;29;20563;-54
2022/12/05 10:21:18;;;;;;;48.27;23.30;;;4.70;99.90;;;;;;4830793;29;20469;-54
2022/12/05 10:23:55;;;;;;;52.00;24.60;;;4.70;99.90;;;;;;4825842;29;20488;-55
2022/12/05 10:26:29;;;;;;;52.07;24.03;;;4.70;99.90;;;;;;4841932;29;20482;-54
2022/12/05 10:29:02;;;;;;;52.50;23.93;;;4.70;99.90;;;;;;4844369;29;20479;-55
2022/12/05 10:31:34;;;;;;;48.90;23.10;;;4.70;99.90;;;;;;4843509;29;20491;-55
2022/12/05 10:34:10;;;;;;;47.07;23.47;;;4.60;99.90;;;;;;4837541;29;20496;-54
2022/12/05 10:36:40;;;;;;;47.77;23.70;;;4.70;99.90;;;;;;4843954;29;20555;-55
2022/12/05 10:39:10;;;;;;;55.20;23.87;;;4.60;99.90;;;;;;4838869;29;20483;-54
2022/12/05 10:41:38;;;;;;;48.27;23.37;;;4.60;99.90;;;;;;4843956;29;20467;-54
2022/12/05 10:44:07;;;;;;;47.17;21.97;;;4.60;99.90;;;;;;4836389;29;20484;-54
2022/12/05 10:46:35;;;;;;;40.33;19.97;;;4.60;99.90;;;;;;4825605;29;20464;-54
2022/12/05 10:49:10;;;;;;;43.83;22.67;;;4.70;99.90;;;;;;4826082;29;20475;-53
2022/12/05 10:51:41;;;;;;;43.10;20.67;;;4.70;99.90;;;;;;4825356;29;20562;-55
2022/12/05 10:54:17;;;;;;;45.63;22.27;;;4.70;99.90;;;;;;4825290;29;20505;-53
2022/12/05 10:56:48;;;;;;;46.13;22.47;;;4.70;99.90;;;;;;4838510;29;20839;-53
2022/12/05 10:59:18;;;;;;;49.70;24.37;;;4.60;99.90;;;;;;4837749;29;21006;-54
2022/12/05 11:01:49;;;;;;;41.80;19.63;;;4.70;99.90;;;;;;4838962;29;21009;-52
2022/12/05 11:04:24;;;;;;;44.60;23.03;;;4.80;99.90;;;;;;4839080;29;20567;-53
2022/12/05 11:06:57;;;;;;;47.40;22.50;;;4.70;99.90;;;;;;4843532;29;20855;-54
2022/12/05 11:09:28;;;;;;;45.80;22.93;;;4.70;99.90;;;;;;4843403;29;20832;-55
2022/12/05 11:12:19;;;;;;;53.60;25.60;;;4.70;99.90;;;;;;4843729;29;20991;-55
2022/12/05 11:14:59;;;;;;;41.80;22.97;;;4.70;99.90;;;;;;4840469;29;20512;-54
2022/12/05 11:17:32;;;;;;;46.13;23.77;;;4.60;99.90;;;;;;4843275;29;20476;-53
2022/12/05 11:20:00;;;;;;;47.03;23.07;;;4.70;99.90;;;;;;4843310;29;20475;-54
2022/12/05 11:22:35;;;;;;;48.87;23.30;;;4.70;99.90;;;;;;4843428;29;20486;-54
2022/12/05 11:25:24;;;;;;;44.67;23.07;;;4.60;99.90;;;;;;4843584;29;20480;-54
2022/12/05 11:27:52;;;;;;;45.57;22.07;;;4.50;99.90;;;;;;4840615;29;20471;-54
2022/12/05 11:30:28;;;;;;;42.03;20.50;;;4.60;99.90;;;;;;4836956;29;20478;-53
2022/12/05 11:33:18;;;;;;;39.07;20.33;;;4.50;99.90;;;;;;4836352;29;20475;-54
2022/12/05 11:35:47;;;;;;;41.43;20.60;;;4.50;99.90;;;;;;4835166;29;20487;-54
2022/12/05 11:38:19;;;;;;;40.90;20.50;;;4.50;99.90;;;;;;4838963;29;20480;-55
2022/12/05 11:40:54;;;;;;;41.33;20.87;;;4.50;99.90;;;;;;4833656;29;20826;-51
2022/12/05 11:43:47;;;;;;;35.80;18.03;;;4.50;99.90;;;;;;4839194;29;20470;-55
2022/12/05 11:46:24;;;;;;;42.33;19.70;;;4.50;99.90;;;;;;4841135;29;20828;-52
2022/12/05 11:49:08;;;;;;;38.03;19.87;;;4.50;99.90;;;;;;4842447;29;20843;-55
2022/12/05 11:51:39;;;;;;;37.77;20.10;;;4.40;99.90;;;;;;4842515;29;20483;-54
2022/12/05 11:54:35;;;;;;;42.87;20.40;;;4.50;99.90;;;;;;4844533;29;20491;-52
2022/12/05 11:57:35;;;;;;;43.33;20.67;;;4.40;99.90;;;;;;4836747;29;20876;-54
2022/12/05 12:00:16;;;;;;;41.27;20.73;;;4.50;99.90;;;;;;4836434;29;20476;-53
2022/12/05 12:03:08;;;;;;;37.90;21.13;;;4.50;99.90;;;;;;4835171;29;20482;-54
2022/12/05 12:05:42;;;;;;;34.13;18.77;;;4.40;99.90;;;;;;4831300;29;20521;-54
2022/12/05 12:08:21;;;;;;;38.40;19.53;;;4.40;99.90;;;;;;4832825;29;20493;-52
2022/12/05 12:11:01;;;;;;;36.23;18.63;;;4.40;99.90;;;;;;4833501;29;20479;-53
2022/12/05 12:13:51;;;;;;;37.70;19.57;;;4.40;99.90;;;;;;4833415;29;20808;-53
2022/12/05 12:16:26;;;;;;;33.37;18.03;;;4.40;99.90;;;;;;4831627;29;20830;-54
2022/12/05 12:19:30;;;;;;;34.37;19.47;;;4.40;99.90;;;;;;4834313;29;20906;-53
2022/12/05 12:22:17;;;;;;;30.73;16.83;;;4.50;99.90;;;;;;4832437;29;20487;-55
2022/12/05 12:25:00;;;;;;;35.60;17.90;;;4.50;99.90;;;;;;4841979;29;20499;-54
2022/12/05 12:27:39;;;;;;;36.20;19.90;;;4.50;99.90;;;;;;4842052;29;20480;-54
2022/12/05 12:30:15;;;;;;;34.47;18.70;;;4.50;99.90;;;;;;4838637;29;20487;-54
2022/12/05 12:32:54;;;;;;;33.80;17.80;;;4.60;99.90;;;;;;4832491;29;20492;-55
2022/12/05 12:35:30;;;;;;;32.23;18.20;;;4.60;99.90;;;;;;4827684;29;20500;-54
2022/12/05 12:38:22;;;;;;;32.53;17.83;;;4.50;99.90;;;;;;4829510;29;20829;-54
2022/12/05 12:40:53;;;;;;;34.10;18.60;;;4.50;99.90;;;;;;4831057;29;20625;-53
2022/12/05 12:43:41;;;;;;;30.33;18.57;;;4.50;99.90;;;;;;4842622;29;20997;-53
2022/12/05 12:46:35;;;;;;;34.43;18.53;;;4.50;99.90;;;;;;4837387;29;20697;-54
2022/12/05 12:49:24;;;;;;;35.27;18.33;;;4.50;99.90;;;;;;4835187;29;20481;-54
2022/12/05 12:51:54;;;;;;;34.83;18.67;;;4.40;99.90;;;;;;4834524;29;20500;-53
2022/12/05 12:54:45;;;;;;;33.87;17.40;;;4.40;99.90;;;;;;4836136;29;20499;-52
2022/12/05 12:57:47;;;;;;;32.43;16.70;;;4.50;99.90;;;;;;4835620;29;21043;-55
2022/12/05 13:00:26;;;;;;;30.70;17.87;;;4.50;99.90;;;;;;4825988;29;20489;-53
2022/12/05 13:03:01;;;;;;;31.80;17.40;;;4.50;99.90;;;;;;4820411;29;20497;-53
2022/12/05 13:05:34;;;;;;;33.23;17.63;;;4.40;99.90;;;;;;4820256;29;20481;-53
2022/12/05 13:08:07;;;;;;;29.83;15.20;;;4.50;99.90;;;;;;4822458;29;20884;-53
2022/12/05 13:10:40;;;;;;;31.33;16.40;;;4.60;99.90;;;;;;4821706;29;20484;-54